createdAt,value
2019-05-11T00:00:00.000Z,98457
2019-05-11T00:05:00.000Z,98449
2019-05-11T00:10:00.000Z,98441
2019-05-11T00:15:00.000Z,98445
2019-05-11T00:20:00.000Z,98439
2019-05-11T00:25:00.000Z,98444
2019-05-11T00:30:00.000Z,98437
2019-05-11T00:35:00.000Z,98440
2019-05-11T00:40:00.000Z,98439
2019-05-11T00:45:00.000Z,98452
2019-05-11T00:50:00.000Z,98450
2019-05-11T00:55:00.000Z,98458
2019-05-11T01:00:00.000Z,98466
2019-05-11T01:05:00.000Z,98462
2019-05-11T01:10:00.000Z,98463
2019-05-11T01:15:00.000Z,98459
2019-05-11T01:20:00.000Z,98457
2019-05-11T01:25:00.000Z,98457
2019-05-11T01:30:00.000Z,98450
2019-05-11T01:35:00.000Z,98454
2019-05-11T01:41:00.000Z,98458
2019-05-11T01:46:00.000Z,98460
2019-05-11T01:51:00.000Z,98451
2019-05-11T01:56:00.000Z,98446
2019-05-11T02:01:00.000Z,98438
2019-05-11T02:06:00.000Z,98450
2019-05-11T02:11:00.000Z,98440
2019-05-11T02:16:00.000Z,98445
2019-05-11T02:21:00.000Z,98440
2019-05-11T02:26:00.000Z,98432
2019-05-11T02:31:00.000Z,98420
2019-05-11T02:36:00.000Z,98421
2019-05-11T02:41:00.000Z,98430
2019-05-11T02:46:00.000Z,98424
2019-05-11T02:51:00.000Z,98445
2019-05-11T02:56:00.000Z,98435
2019-05-11T03:01:00.000Z,98433
2019-05-11T03:06:00.000Z,98429
2019-05-11T03:11:00.000Z,98435
2019-05-11T03:16:00.000Z,98444
2019-05-11T03:21:00.000Z,98450
2019-05-11T03:26:00.000Z,98452
2019-05-11T03:31:00.000Z,98451
2019-05-11T03:37:00.000Z,98446
2019-05-11T03:42:00.000Z,98458
2019-05-11T03:47:00.000Z,98447
2019-05-11T03:52:00.000Z,98453
2019-05-11T03:57:00.000Z,98448
2019-05-11T04:02:00.000Z,98446
2019-05-11T04:07:00.000Z,98444
2019-05-11T04:12:00.000Z,98443
2019-05-11T04:17:00.000Z,98448
2019-05-11T04:22:00.000Z,98438
2019-05-11T04:27:00.000Z,98442
2019-05-11T04:32:00.000Z,98439
2019-05-11T04:37:00.000Z,98441
2019-05-11T04:42:00.000Z,98434
2019-05-11T04:47:00.000Z,98440
2019-05-11T04:52:00.000Z,98448
2019-05-11T04:57:00.000Z,98440
2019-05-11T05:02:00.000Z,98445
2019-05-11T05:08:00.000Z,98439
2019-05-11T05:13:00.000Z,98432
2019-05-11T05:18:00.000Z,98439
2019-05-11T05:23:00.000Z,98437
2019-05-11T05:28:00.000Z,98444
2019-05-11T05:33:00.000Z,98452
2019-05-11T05:38:00.000Z,98440
2019-05-11T05:43:00.000Z,98436
2019-05-11T05:48:00.000Z,98422
2019-05-11T05:53:00.000Z,98422
2019-05-11T05:58:00.000Z,98417
2019-05-11T06:03:00.000Z,98420
2019-05-11T06:08:00.000Z,98430
2019-05-11T06:13:00.000Z,98423
2019-05-11T06:18:00.000Z,98412
2019-05-11T06:23:00.000Z,98420
2019-05-11T06:28:00.000Z,98410
2019-05-11T06:33:00.000Z,98426
2019-05-11T06:38:00.000Z,98419
2019-05-11T06:43:00.000Z,98410
2019-05-11T06:49:00.000Z,98399
2019-05-11T06:54:00.000Z,98400
2019-05-11T06:59:00.000Z,98403
2019-05-11T07:04:00.000Z,98409
2019-05-11T07:09:00.000Z,98405
2019-05-11T07:14:00.000Z,98401
2019-05-11T07:19:00.000Z,98411
2019-05-11T07:24:00.000Z,98394
2019-05-11T07:29:00.000Z,98388
2019-05-11T07:34:00.000Z,98370
2019-05-11T07:39:00.000Z,98372
2019-05-11T07:44:00.000Z,98381
2019-05-11T07:49:00.000Z,98366
2019-05-11T07:54:00.000Z,98358
2019-05-11T07:59:00.000Z,98367
2019-05-11T08:04:00.000Z,98371
2019-05-11T08:09:00.000Z,98369
2019-05-11T08:14:00.000Z,98355
2019-05-11T08:20:00.000Z,98360
2019-05-11T08:25:00.000Z,98364
2019-05-11T08:30:00.000Z,98365
2019-05-11T08:35:00.000Z,98374
2019-05-11T08:40:00.000Z,98371
2019-05-11T08:45:00.000Z,98371
2019-05-11T08:50:00.000Z,98370
2019-05-11T08:55:00.000Z,98360
2019-05-11T09:00:00.000Z,98356
2019-05-11T09:05:00.000Z,98353
2019-05-11T09:10:00.000Z,98355
2019-05-11T09:15:00.000Z,98351
2019-05-11T09:20:00.000Z,98342
2019-05-11T09:25:00.000Z,98341
2019-05-11T09:30:00.000Z,98339
2019-05-11T09:35:00.000Z,98339
2019-05-11T09:40:00.000Z,98331
2019-05-11T09:45:00.000Z,98327
2019-05-11T09:50:00.000Z,98318
2019-05-11T09:55:00.000Z,98317
2019-05-11T10:01:00.000Z,98316
2019-05-11T10:06:00.000Z,98311
2019-05-11T10:11:00.000Z,98314
2019-05-11T10:16:00.000Z,98306
2019-05-11T10:21:00.000Z,98297
2019-05-11T10:26:00.000Z,98310
2019-05-11T10:31:00.000Z,98309
2019-05-11T10:36:00.000Z,98305
2019-05-11T10:41:00.000Z,98315
2019-05-11T10:46:00.000Z,98319
2019-05-11T10:51:00.000Z,98325
2019-05-11T10:56:00.000Z,98328
2019-05-11T11:01:00.000Z,98335
2019-05-11T11:06:00.000Z,98330
2019-05-11T11:11:00.000Z,98337
2019-05-11T11:16:00.000Z,98337
2019-05-11T11:21:00.000Z,98315
2019-05-11T11:26:00.000Z,98301
2019-05-11T11:31:00.000Z,98299
2019-05-11T11:36:00.000Z,98291
2019-05-11T11:41:00.000Z,98292
2019-05-11T11:46:00.000Z,98301
2019-05-11T11:51:00.000Z,98312
2019-05-11T11:56:00.000Z,98314
2019-05-11T12:01:00.000Z,98314
2019-05-11T12:07:00.000Z,98314
2019-05-11T12:12:00.000Z,98314
2019-05-11T12:17:00.000Z,98309
2019-05-11T12:22:00.000Z,98309
2019-05-11T12:27:00.000Z,98306
2019-05-11T12:32:00.000Z,98305
2019-05-11T12:37:00.000Z,98307
2019-05-11T12:42:00.000Z,98309
2019-05-11T12:47:00.000Z,98313
2019-05-11T12:52:00.000Z,98310
2019-05-11T12:57:00.000Z,98308
2019-05-11T13:02:00.000Z,98306
2019-05-11T13:07:00.000Z,98292
2019-05-11T13:12:00.000Z,98286
2019-05-11T13:17:00.000Z,98296
2019-05-11T13:22:00.000Z,98299
2019-05-11T13:27:00.000Z,98287
2019-05-11T13:32:00.000Z,98282
2019-05-11T13:37:00.000Z,98279
2019-05-11T13:42:00.000Z,98262
2019-05-11T13:47:00.000Z,98254
2019-05-11T13:52:00.000Z,98247
2019-05-11T13:57:00.000Z,98253
2019-05-11T14:03:00.000Z,98246
2019-05-11T14:08:00.000Z,98250
2019-05-11T14:13:00.000Z,98257
2019-05-11T14:18:00.000Z,98240
2019-05-11T14:23:00.000Z,98239
2019-05-11T14:28:00.000Z,98244
2019-05-11T14:33:00.000Z,98242
2019-05-11T14:38:00.000Z,98239
2019-05-11T14:43:00.000Z,98257
2019-05-11T14:48:00.000Z,98253
2019-05-11T14:53:00.000Z,98255
2019-05-11T14:58:00.000Z,98262
2019-05-11T15:03:00.000Z,98264
2019-05-11T15:08:00.000Z,98262
2019-05-11T15:13:00.000Z,98256
2019-05-11T15:18:00.000Z,98254
2019-05-11T15:23:00.000Z,98254
2019-05-11T15:28:00.000Z,98258
2019-05-11T15:33:00.000Z,98242
2019-05-11T15:38:00.000Z,98250
2019-05-11T15:43:00.000Z,98256
2019-05-11T15:48:00.000Z,98239
2019-05-11T15:54:00.000Z,98233
2019-05-11T15:59:00.000Z,98215
2019-05-11T16:04:00.000Z,98228
2019-05-11T16:09:00.000Z,98235
2019-05-11T16:14:00.000Z,98229
2019-05-11T16:19:00.000Z,98231
2019-05-11T16:24:00.000Z,98211
2019-05-11T16:29:00.000Z,98218
2019-05-11T16:34:00.000Z,98220
2019-05-11T16:39:00.000Z,98216
2019-05-11T16:44:00.000Z,98207
2019-05-11T16:49:00.000Z,98211
2019-05-11T16:54:00.000Z,98222
2019-05-11T16:59:00.000Z,98219
2019-05-11T17:04:00.000Z,98214
2019-05-11T17:09:00.000Z,98205
2019-05-11T17:14:00.000Z,98195
2019-05-11T17:19:00.000Z,98199
2019-05-11T17:24:00.000Z,98212
2019-05-11T17:29:00.000Z,98208
2019-05-11T17:34:00.000Z,98219
2019-05-11T17:39:00.000Z,98221
2019-05-11T17:44:00.000Z,98229
2019-05-11T17:49:00.000Z,98256
2019-05-11T17:55:00.000Z,98287
2019-05-11T18:00:00.000Z,98313
2019-05-11T18:05:00.000Z,98335
2019-05-11T18:10:00.000Z,98358
2019-05-11T18:15:00.000Z,98390
2019-05-11T18:20:00.000Z,98427
2019-05-11T18:25:00.000Z,98430
2019-05-11T18:30:00.000Z,98444
2019-05-11T18:35:00.000Z,98429
2019-05-11T18:40:00.000Z,98452
2019-05-11T18:45:00.000Z,98464
2019-05-11T18:50:00.000Z,98451
2019-05-11T18:55:00.000Z,98479
2019-05-11T19:00:00.000Z,98478
2019-05-11T19:05:00.000Z,98484
2019-05-11T19:10:00.000Z,98494
2019-05-11T19:15:00.000Z,98476
2019-05-11T19:20:00.000Z,98488
2019-05-11T19:25:00.000Z,98469
2019-05-11T19:30:00.000Z,98472
2019-05-11T19:35:00.000Z,98432
2019-05-11T19:40:00.000Z,98429
2019-05-11T19:45:00.000Z,98457
2019-05-11T19:50:00.000Z,98454
2019-05-11T19:56:00.000Z,98488
2019-05-11T20:01:00.000Z,98482
2019-05-11T20:06:00.000Z,98520
2019-05-11T20:11:00.000Z,98540
2019-05-11T20:16:00.000Z,98564
2019-05-11T20:21:00.000Z,98580
2019-05-11T20:26:00.000Z,98558
2019-05-11T20:31:00.000Z,98591
2019-05-11T20:36:00.000Z,98597
2019-05-11T20:41:00.000Z,98598
2019-05-11T20:46:00.000Z,98599
2019-05-11T20:51:00.000Z,98620
2019-05-11T20:56:00.000Z,98611
2019-05-11T21:01:00.000Z,98616
2019-05-11T21:06:00.000Z,98618
2019-05-11T21:11:00.000Z,98639
2019-05-11T21:16:00.000Z,98640
2019-05-11T21:21:00.000Z,98639
2019-05-11T21:26:00.000Z,98634
2019-05-11T21:31:00.000Z,98633
2019-05-11T21:36:00.000Z,98624
2019-05-11T21:41:00.000Z,98620
2019-05-11T21:46:00.000Z,98622
2019-05-11T21:51:00.000Z,98616
2019-05-11T21:57:00.000Z,98617
2019-05-11T22:02:00.000Z,98610
2019-05-11T22:07:00.000Z,98612
2019-05-11T22:12:00.000Z,98622
2019-05-11T22:17:00.000Z,98625
2019-05-11T22:22:00.000Z,98631
2019-05-11T22:27:00.000Z,98621
2019-05-11T22:32:00.000Z,98626
2019-05-11T22:37:00.000Z,98632
2019-05-11T22:42:00.000Z,98641
2019-05-11T22:47:00.000Z,98656
2019-05-11T22:52:00.000Z,98647
2019-05-11T22:57:00.000Z,98663
2019-05-11T23:02:00.000Z,98657
2019-05-11T23:07:00.000Z,98671
2019-05-11T23:12:00.000Z,98670
2019-05-11T23:17:00.000Z,98671
2019-05-11T23:22:00.000Z,98666
2019-05-11T23:27:00.000Z,98659
2019-05-11T23:32:00.000Z,98639
2019-05-11T23:38:00.000Z,98630
2019-05-11T23:43:00.000Z,98628
2019-05-11T23:48:00.000Z,98623
2019-05-11T23:53:00.000Z,98621
2019-05-11T23:58:00.000Z,98618
